SBNT/NAT METAR and TAF weather

Enter ICAO airport designator
Station Type Date Time Source
SBNT METAR 2018/12/11 18:00 UTC NOAA

SBNT 111800Z 13019KT 9999 BKN027 30/21 Q1013


Station Type Date Time Source
SBNT Decoded METAR 2018/12/11 18:00 UTC NOAA

Natal Aeroporto, Brazil (SBNT) 05-55S 035-15W 49M
Dec 11, 2018 - 01:00 PM EST / 2018.12.11 1800 UTC
Wind: from the SE (130 degrees) at 22 MPH (19 KT):0
Visibility: greater than 7 mile(s):0
Sky conditions: mostly cloudy
Temperature: 86 F (30 C)
Dew Point: 69 F (21 C)
Relative Humidity: 58%
Pressure (altimeter): 29.91 in. Hg (1013 hPa)
ob: SBNT 111800Z 13019KT 9999 BKN027 30/21 Q1013
cycle: 18

Station Type Date Time Source
SBNT TAF 2018/12/11 18:03 UTC NOAA

TAF SBNT 111600Z 1118/1218 11015KT 8000 SCT023 TN25/1207Z TX31/1216Z
BECMG 1121/1122 17007KT SCT017 PROB30
TEMPO 1201/1204 6000 SHRA SCT019 FEW 025TCU PROB30 1208/1214 5000 SHRA BKN023
BECMG 1210/1213 16017KT SCT025
RMK PBO


Example: see airport list